createdAt,value
2022-12-22T00:02:37.978Z,12.35
2022-12-22T00:05:43.115Z,13.13
2022-12-22T00:08:29.242Z,13.35
2022-12-22T00:11:15.636Z,13.55
2022-12-22T00:14:02.937Z,13.13
2022-12-22T00:16:56.371Z,13.90
2022-12-22T00:19:42.051Z,13.82
2022-12-22T00:22:39.451Z,13.23
2022-12-22T00:25:25.449Z,14.18
2022-12-22T00:28:11.076Z,13.38
2022-12-22T00:30:56.077Z,15.30
2022-12-22T00:33:41.287Z,13.98
2022-12-22T00:36:29.973Z,14.68
2022-12-22T00:39:14.861Z,15.80
2022-12-22T00:42:00.237Z,15.93
2022-12-22T00:44:45.040Z,14.88
2022-12-22T00:47:45.065Z,15.55
2022-12-22T00:50:31.159Z,16.70
2022-12-22T00:53:17.691Z,15.90
2022-12-22T00:56:03.069Z,15.50
2022-12-22T00:58:48.154Z,15.68
2022-12-22T01:01:33.243Z,16.65
2022-12-22T01:04:18.418Z,14.18
2022-12-22T01:07:03.318Z,14.55
2022-12-22T01:09:48.621Z,14.43
2022-12-22T01:12:39.972Z,15.13
2022-12-22T01:15:36.501Z,14.20
2022-12-22T01:18:22.215Z,13.48
2022-12-22T01:21:09.622Z,13.90
2022-12-22T01:23:55.792Z,14.52
2022-12-22T01:26:40.550Z,14.57
2022-12-22T01:29:26.105Z,14.55
2022-12-22T01:32:11.422Z,14.45
2022-12-22T01:34:56.406Z,13.73
2022-12-22T01:37:41.324Z,12.73
2022-12-22T01:40:33.154Z,13.93
2022-12-22T01:43:18.023Z,14.07
2022-12-22T01:46:03.111Z,13.75
2022-12-22T01:48:50.011Z,13.10
2022-12-22T01:51:39.340Z,13.45
2022-12-22T01:54:25.921Z,13.43
2022-12-22T01:57:11.084Z,12.90
2022-12-22T01:59:56.428Z,11.95
2022-12-22T02:02:44.882Z,13.43
2022-12-22T02:05:33.250Z,11.45
2022-12-22T02:08:42.620Z,10.98
2022-12-22T02:11:58.322Z,11.60
2022-12-22T02:14:59.440Z,10.43
2022-12-22T02:18:06.459Z,10.50
2022-12-22T02:21:07.997Z,10.63
2022-12-22T02:24:30.138Z,10.48
2022-12-22T02:27:18.810Z,9.75
2022-12-22T02:30:10.514Z,9.60
2022-12-22T02:33:01.069Z,9.48
2022-12-22T02:36:20.326Z,10.25
2022-12-22T02:39:13.725Z,8.70
2022-12-22T02:42:17.045Z,8.55
2022-12-22T02:45:23.779Z,8.80
2022-12-22T02:48:26.158Z,8.68
2022-12-22T02:51:19.983Z,8.23
2022-12-22T02:54:05.817Z,8.50
2022-12-22T02:56:51.162Z,8.63
2022-12-22T02:59:36.116Z,8.40
2022-12-22T03:02:21.631Z,8.32
2022-12-22T03:05:06.853Z,8.30
2022-12-22T03:07:51.730Z,7.80
2022-12-22T03:10:36.508Z,7.55
2022-12-22T03:13:21.465Z,7.82
2022-12-22T03:16:06.933Z,7.20
2022-12-22T03:18:51.994Z,7.35
2022-12-22T03:21:36.882Z,7.93
2022-12-22T03:24:22.292Z,6.95
2022-12-22T03:26:48.824Z,6.57
2022-12-22T03:29:15.574Z,5.55
2022-12-22T03:31:42.181Z,5.80
2022-12-22T03:34:08.851Z,5.43
2022-12-22T03:36:35.386Z,3.53
2022-12-22T03:39:01.851Z,3.00
2022-12-22T03:41:47.034Z,3.90
2022-12-22T03:44:31.830Z,2.90
2022-12-22T03:46:58.399Z,2.53
2022-12-22T03:49:26.204Z,1.58
2022-12-22T03:51:53.413Z,1.63
2022-12-22T03:54:25.480Z,1.40
2022-12-22T03:56:53.261Z,1.20
2022-12-22T03:59:20.347Z,0.90
2022-12-22T04:01:52.827Z,1.17
2022-12-22T04:04:21.143Z,0.90
2022-12-22T04:06:48.111Z,1.02
2022-12-22T04:09:14.577Z,0.90
2022-12-22T04:12:00.170Z,1.27
2022-12-22T04:14:33.158Z,1.45
2022-12-22T04:17:01.621Z,1.08
2022-12-22T04:19:28.189Z,1.13
2022-12-22T04:21:54.917Z,1.30
2022-12-22T04:24:22.359Z,1.42
2022-12-22T04:26:49.816Z,0.93
2022-12-22T04:29:16.477Z,0.82
2022-12-22T04:31:43.072Z,1.55
2022-12-22T04:34:09.752Z,0.68
2022-12-22T04:36:36.420Z,0.70
2022-12-22T04:39:03.550Z,0.77
2022-12-22T04:41:30.019Z,0.82
2022-12-22T04:43:56.489Z,0.95
2022-12-22T04:46:23.038Z,0.95
2022-12-22T04:48:53.132Z,0.80
2022-12-22T04:51:22.623Z,0.85
2022-12-22T04:53:49.136Z,1.35
2022-12-22T04:56:15.607Z,0.80
2022-12-22T04:58:42.140Z,0.80
2022-12-22T05:01:14.725Z,1.17
2022-12-22T05:03:41.611Z,0.63
2022-12-22T05:06:08.877Z,0.60
2022-12-22T05:08:35.477Z,0.50
2022-12-22T05:11:02.947Z,0.65
2022-12-22T05:13:33.262Z,0.70
2022-12-22T05:16:08.834Z,1.10
2022-12-22T05:18:36.158Z,1.38
2022-12-22T05:21:17.434Z,1.73
2022-12-22T05:23:44.933Z,0.88
2022-12-22T05:26:11.962Z,0.90
2022-12-22T05:28:38.472Z,1.00
2022-12-22T05:31:11.327Z,1.02
2022-12-22T05:33:37.916Z,1.80
2022-12-22T05:36:04.830Z,1.55
2022-12-22T05:38:31.607Z,1.30
2022-12-22T05:41:03.565Z,1.95
2022-12-22T05:43:31.465Z,2.65
2022-12-22T05:45:58.739Z,1.45
2022-12-22T05:48:30.775Z,2.00
2022-12-22T05:51:00.522Z,1.83
2022-12-22T05:53:27.056Z,1.40
2022-12-22T05:55:53.551Z,2.05
2022-12-22T05:58:20.029Z,1.85
2022-12-22T06:00:46.575Z,1.48
2022-12-22T06:03:13.712Z,1.85
2022-12-22T06:05:40.372Z,1.50
2022-12-22T06:08:07.107Z,1.60
2022-12-22T06:10:33.620Z,1.27
2022-12-22T06:13:00.175Z,2.20
2022-12-22T06:15:26.688Z,1.20
2022-12-22T06:17:54.244Z,1.40
2022-12-22T06:20:20.713Z,2.33
2022-12-22T06:22:47.165Z,1.13
2022-12-22T06:25:18.184Z,1.13
2022-12-22T06:27:46.417Z,1.27
2022-12-22T06:30:13.863Z,1.90
2022-12-22T06:32:40.751Z,1.63
2022-12-22T06:35:08.496Z,1.17
2022-12-22T06:37:35.099Z,1.98
2022-12-22T06:40:02.742Z,1.73
2022-12-22T06:42:47.748Z,1.08
2022-12-22T06:45:14.221Z,1.35
2022-12-22T06:47:40.763Z,1.17
2022-12-22T06:50:08.015Z,1.58
2022-12-22T06:52:34.678Z,1.77
2022-12-22T06:55:02.242Z,1.30
2022-12-22T06:57:29.272Z,1.52
2022-12-22T06:59:57.887Z,1.10
2022-12-22T07:02:25.276Z,1.25
2022-12-22T07:04:52.045Z,0.95
2022-12-22T07:07:18.497Z,1.38
2022-12-22T07:09:45.004Z,1.08
2022-12-22T07:12:13.529Z,1.35
2022-12-22T07:14:40.048Z,1.48
2022-12-22T07:17:06.533Z,1.95
2022-12-22T07:19:33.020Z,1.13
2022-12-22T07:21:59.531Z,2.30
2022-12-22T07:24:26.777Z,1.23
2022-12-22T07:26:53.387Z,1.67
2022-12-22T07:29:19.995Z,1.27
2022-12-22T07:31:47.248Z,1.60
2022-12-22T07:34:14.172Z,1.23
2022-12-22T07:36:40.694Z,1.83
2022-12-22T07:39:08.412Z,1.38
2022-12-22T07:41:53.596Z,1.50
2022-12-22T07:44:20.188Z,1.23
2022-12-22T07:46:46.886Z,0.90
2022-12-22T07:49:32.157Z,1.85
2022-12-22T07:51:59.375Z,1.55
2022-12-22T07:54:27.081Z,1.00
2022-12-22T07:56:53.854Z,1.48
2022-12-22T07:59:20.607Z,1.48
2022-12-22T08:01:47.238Z,1.10
2022-12-22T08:04:14.931Z,1.35
2022-12-22T08:06:41.718Z,1.38
2022-12-22T08:09:09.139Z,1.90
2022-12-22T08:11:35.966Z,1.40
2022-12-22T08:14:02.591Z,2.30
2022-12-22T08:16:29.605Z,2.17
2022-12-22T08:18:56.941Z,1.88
2022-12-22T08:21:23.725Z,2.30
2022-12-22T08:23:50.241Z,2.22
2022-12-22T08:26:28.552Z,2.10
2022-12-22T08:28:59.226Z,2.22
2022-12-22T08:31:27.929Z,1.58
2022-12-22T08:33:56.339Z,3.25
2022-12-22T08:36:23.383Z,1.88
2022-12-22T08:38:50.160Z,1.67
2022-12-22T08:41:37.331Z,1.63
2022-12-22T08:44:03.956Z,1.83
2022-12-22T08:46:30.451Z,2.45
2022-12-22T08:48:56.911Z,2.15
2022-12-22T08:51:23.391Z,1.80
2022-12-22T08:54:06.534Z,2.05
2022-12-22T08:56:33.735Z,2.33
2022-12-22T08:59:05.024Z,1.70
2022-12-22T09:01:33.994Z,1.63
2022-12-22T09:04:00.662Z,1.70
2022-12-22T09:06:29.712Z,1.45
2022-12-22T09:09:00.398Z,1.60
2022-12-22T09:11:29.313Z,1.83
2022-12-22T09:13:58.363Z,2.35
2022-12-22T09:16:27.213Z,2.22
2022-12-22T09:18:55.886Z,1.60
2022-12-22T09:21:23.888Z,1.63
2022-12-22T09:23:50.860Z,2.17
2022-12-22T09:26:20.047Z,1.73
2022-12-22T09:28:50.423Z,2.00
2022-12-22T09:31:18.046Z,1.40
2022-12-22T09:33:44.523Z,1.77
2022-12-22T09:36:14.023Z,1.50
2022-12-22T09:38:41.726Z,2.00
2022-12-22T09:41:34.922Z,1.95
2022-12-22T09:44:07.015Z,1.58
2022-12-22T09:46:36.745Z,1.50
2022-12-22T09:49:06.004Z,1.65
2022-12-22T09:51:39.325Z,1.67
2022-12-22T09:56:32.290Z,2.05
2022-12-22T09:59:00.606Z,1.40
2022-12-22T10:01:32.992Z,2.08
2022-12-22T10:04:17.460Z,1.80
2022-12-22T10:07:10.229Z,1.92
2022-12-22T10:09:52.668Z,1.80
2022-12-22T10:12:22.842Z,2.53
2022-12-22T10:14:51.282Z,1.70
2022-12-22T10:17:23.105Z,2.13
2022-12-22T10:19:52.788Z,2.35
2022-12-22T10:22:47.182Z,1.60
2022-12-22T10:28:57.894Z,1.42
2022-12-22T10:31:27.406Z,2.13
2022-12-22T10:33:56.835Z,1.77
2022-12-22T10:36:32.211Z,1.70
2022-12-22T10:39:07.550Z,1.80
2022-12-22T10:41:41.561Z,2.42
2022-12-22T10:44:13.987Z,2.30
2022-12-22T10:46:45.044Z,2.45
2022-12-22T10:52:29.477Z,3.60
2022-12-22T10:55:23.404Z,2.10
2022-12-22T10:57:50.792Z,2.43
2022-12-22T11:00:25.868Z,3.47
2022-12-22T11:02:55.095Z,2.55
2022-12-22T11:05:21.916Z,2.95
2022-12-22T11:07:48.836Z,2.88
2022-12-22T11:10:20.135Z,2.70
2022-12-22T11:13:12.313Z,3.22
2022-12-22T11:15:48.601Z,3.17
2022-12-22T11:18:33.345Z,3.05
2022-12-22T11:21:22.042Z,3.40
2022-12-22T11:24:21.720Z,3.03
2022-12-22T11:27:22.030Z,2.47
2022-12-22T11:30:02.883Z,2.95
2022-12-22T11:32:44.518Z,3.30
2022-12-22T11:35:46.492Z,4.05
2022-12-22T11:38:40.044Z,4.38
2022-12-22T11:41:26.697Z,2.80
2022-12-22T11:44:24.018Z,3.35
2022-12-22T11:46:54.493Z,4.10
2022-12-22T11:49:45.778Z,2.38
2022-12-22T11:52:40.719Z,2.88
2022-12-22T11:55:22.083Z,3.03
2022-12-22T11:58:39.272Z,3.20
2022-12-22T12:01:26.195Z,2.33
2022-12-22T12:04:16.353Z,2.85
2022-12-22T12:06:45.513Z,1.92
2022-12-22T12:09:25.257Z,2.25
2022-12-22T12:11:51.688Z,2.33
2022-12-22T12:14:30.237Z,3.88
2022-12-22T12:17:02.924Z,1.85
2022-12-22T12:19:57.683Z,2.17
2022-12-22T12:22:27.244Z,2.58
2022-12-22T12:25:19.886Z,2.05
2022-12-22T12:28:20.503Z,3.20
2022-12-22T12:30:59.486Z,2.60
2022-12-22T12:33:48.483Z,2.55
2022-12-22T12:36:20.539Z,2.00
2022-12-22T12:39:11.696Z,3.20
2022-12-22T12:41:38.112Z,1.90
2022-12-22T12:44:06.023Z,2.00
2022-12-22T12:46:44.624Z,2.42
2022-12-22T12:49:36.062Z,2.20
2022-12-22T12:52:04.651Z,2.38
2022-12-22T12:54:40.014Z,2.10
2022-12-22T12:57:23.674Z,2.05
2022-12-22T12:59:52.669Z,1.67
2022-12-22T13:02:28.496Z,1.95
2022-12-22T13:05:13.493Z,2.40
2022-12-22T13:08:14.252Z,2.00
2022-12-22T13:11:03.900Z,2.03
2022-12-22T13:13:36.130Z,2.28
2022-12-22T13:16:02.830Z,2.40
2022-12-22T13:18:29.760Z,3.28
2022-12-22T13:21:50.881Z,2.15
2022-12-22T13:24:24.162Z,2.75
2022-12-22T13:26:54.621Z,2.20
2022-12-22T13:29:29.982Z,1.95
2022-12-22T13:32:15.807Z,1.80
2022-12-22T13:35:28.886Z,2.30
2022-12-22T13:37:46.210Z,2.03
2022-12-22T13:40:19.211Z,1.70
2022-12-22T13:42:52.049Z,2.00
2022-12-22T13:45:39.116Z,2.67
2022-12-22T13:48:21.167Z,2.10
2022-12-22T13:50:57.248Z,2.30
2022-12-22T13:56:42.173Z,2.00
2022-12-22T13:59:27.959Z,2.35
2022-12-22T14:02:03.727Z,2.75
2022-12-22T14:04:31.097Z,2.33
2022-12-22T14:06:57.704Z,2.25
2022-12-22T14:09:25.031Z,2.20
2022-12-22T14:12:07.330Z,1.80
2022-12-22T14:14:39.697Z,1.60
2022-12-22T14:17:29.183Z,1.75
2022-12-22T14:20:01.516Z,1.45
2022-12-22T14:22:37.841Z,2.55
2022-12-22T14:25:16.593Z,1.90
2022-12-22T14:27:49.072Z,2.28
2022-12-22T14:30:21.058Z,1.93
2022-12-22T14:32:54.881Z,2.75
2022-12-22T14:35:24.211Z,1.92
2022-12-22T14:37:52.535Z,1.98
2022-12-22T14:40:37.549Z,2.00
2022-12-22T14:43:08.015Z,2.10
2022-12-22T14:45:34.579Z,1.83
2022-12-22T14:48:01.075Z,2.30
2022-12-22T14:50:29.429Z,2.00
2022-12-22T14:53:01.421Z,2.60
2022-12-22T14:55:50.647Z,2.30
2022-12-22T14:58:25.430Z,2.20
2022-12-22T15:01:23.079Z,2.55
2022-12-22T15:04:04.798Z,1.92
2022-12-22T15:06:38.476Z,2.15
2022-12-22T15:09:06.393Z,1.88
2022-12-22T15:11:34.232Z,2.35
2022-12-22T15:14:01.579Z,1.88
2022-12-22T15:16:28.194Z,1.60
2022-12-22T15:18:54.867Z,2.25
2022-12-22T15:21:22.874Z,2.00
2022-12-22T15:23:49.388Z,1.80
2022-12-22T15:26:15.895Z,1.25
2022-12-22T15:28:42.352Z,1.50
2022-12-22T15:31:16.485Z,1.92
2022-12-22T15:33:44.657Z,2.35
2022-12-22T15:36:13.090Z,2.00
2022-12-22T15:38:41.157Z,2.05
2022-12-22T15:41:08.111Z,1.58
2022-12-22T15:43:57.053Z,2.05
2022-12-22T15:46:24.627Z,1.70
2022-12-22T15:48:51.401Z,1.63
2022-12-22T15:51:24.983Z,1.90
2022-12-22T15:53:53.724Z,1.35
2022-12-22T15:56:22.929Z,1.17
2022-12-22T15:58:49.742Z,1.40
2022-12-22T16:01:16.364Z,1.48
2022-12-22T16:03:43.168Z,1.77
2022-12-22T16:06:15.382Z,1.63
2022-12-22T16:08:45.600Z,1.67
2022-12-22T16:11:12.339Z,1.30
2022-12-22T16:13:39.134Z,2.03
2022-12-22T16:16:06.264Z,2.25
2022-12-22T16:18:32.845Z,1.83
2022-12-22T16:21:07.764Z,1.17
2022-12-22T16:23:36.709Z,1.20
2022-12-22T16:26:05.027Z,1.75
2022-12-22T16:28:33.315Z,1.52
2022-12-22T16:31:01.036Z,1.50
2022-12-22T16:33:27.681Z,2.38
2022-12-22T16:35:54.237Z,1.60
2022-12-22T16:38:21.954Z,1.40
2022-12-22T16:40:52.052Z,1.85
2022-12-22T16:46:15.742Z,1.45
2022-12-22T16:48:54.693Z,1.20
2022-12-22T16:51:37.273Z,1.48
2022-12-22T16:54:04.489Z,1.40
2022-12-22T16:56:32.218Z,0.93
2022-12-22T16:58:58.805Z,1.17
2022-12-22T17:01:32.610Z,1.30
2022-12-22T17:04:04.645Z,1.05
2022-12-22T17:06:31.742Z,2.08
2022-12-22T17:08:58.458Z,1.50
2022-12-22T17:11:29.249Z,1.88
2022-12-22T17:14:04.628Z,1.35
2022-12-22T17:16:31.245Z,1.20
2022-12-22T17:18:57.929Z,1.40
2022-12-22T17:21:25.445Z,1.33
2022-12-22T17:23:54.933Z,1.45
2022-12-22T17:26:25.577Z,1.48
2022-12-22T17:28:53.152Z,1.25
2022-12-22T17:31:22.457Z,1.88
2022-12-22T17:33:49.080Z,1.50
2022-12-22T17:36:21.669Z,1.13
2022-12-22T17:38:48.270Z,1.37
2022-12-22T17:41:17.033Z,1.30
2022-12-22T17:43:43.805Z,1.83
2022-12-22T17:46:16.208Z,1.42
2022-12-22T17:48:43.385Z,3.33
2022-12-22T17:51:25.848Z,3.17
2022-12-22T17:53:53.228Z,4.47
2022-12-22T17:56:22.747Z,13.23
2022-12-22T17:58:50.108Z,4.85
2022-12-22T18:01:23.670Z,4.97
2022-12-22T18:03:50.701Z,2.00
2022-12-22T18:06:19.873Z,2.10
2022-12-22T18:08:47.336Z,1.42
2022-12-22T18:11:14.318Z,1.65
2022-12-22T18:13:41.138Z,2.03
2022-12-22T18:16:13.314Z,1.23
2022-12-22T18:18:39.791Z,1.10
2022-12-22T18:21:08.238Z,1.23
2022-12-22T18:23:36.986Z,1.20
2022-12-22T18:26:10.503Z,1.27
2022-12-22T18:31:03.676Z,1.30
2022-12-22T18:33:30.157Z,1.17
2022-12-22T18:35:59.190Z,1.02
2022-12-22T18:38:29.685Z,1.42
2022-12-22T18:40:56.493Z,1.30
2022-12-22T18:43:23.413Z,1.25
2022-12-22T18:45:49.990Z,2.22
2022-12-22T18:48:16.668Z,10.10
2022-12-22T18:50:43.310Z,5.53
2022-12-22T18:53:27.956Z,9.63
2022-12-22T18:55:54.924Z,16.77
2022-12-22T18:58:21.812Z,19.30
2022-12-22T19:00:49.296Z,21.90
2022-12-22T19:03:25.036Z,18.40
2022-12-22T19:05:51.727Z,6.35
2022-12-22T19:08:20.378Z,3.53
2022-12-22T19:10:50.525Z,2.17
2022-12-22T19:13:30.950Z,1.83
2022-12-22T19:15:58.346Z,1.42
2022-12-22T19:18:27.447Z,1.52
2022-12-22T19:20:56.101Z,1.50
2022-12-22T19:23:24.479Z,1.70
2022-12-22T19:25:54.370Z,1.75
2022-12-22T19:28:49.015Z,2.40
2022-12-22T19:31:23.143Z,2.40
2022-12-22T19:33:49.759Z,3.00
2022-12-22T19:36:19.571Z,2.30
2022-12-22T19:38:50.301Z,1.48
2022-12-22T19:41:52.640Z,2.15
2022-12-22T19:44:24.307Z,3.53
2022-12-22T19:46:52.322Z,3.53
2022-12-22T19:49:24.085Z,4.35
2022-12-22T19:51:51.035Z,1.52
2022-12-22T19:54:19.484Z,1.45
2022-12-22T19:56:52.481Z,1.30
2022-12-22T19:59:37.698Z,1.40
2022-12-22T20:02:30.717Z,1.25
2022-12-22T20:04:58.456Z,1.42
2022-12-22T20:07:27.267Z,1.92
2022-12-22T20:09:54.226Z,1.13
2022-12-22T20:12:31.923Z,1.50
2022-12-22T20:14:59.950Z,1.30
2022-12-22T20:17:27.066Z,1.00
2022-12-22T20:19:53.892Z,1.33
2022-12-22T20:22:23.145Z,0.77
2022-12-22T20:24:50.904Z,1.00
2022-12-22T20:27:23.610Z,1.23
2022-12-22T20:29:50.575Z,0.65
2022-12-22T20:32:22.325Z,1.10
2022-12-22T20:34:53.875Z,0.85
2022-12-22T20:37:20.454Z,0.90
2022-12-22T20:39:47.059Z,0.60
2022-12-22T20:42:22.279Z,0.93
2022-12-22T20:45:02.702Z,1.40
2022-12-22T20:47:32.893Z,2.65
2022-12-22T20:49:59.589Z,0.77
2022-12-22T20:52:26.267Z,0.47
2022-12-22T20:54:52.725Z,0.45
2022-12-22T20:57:20.310Z,0.43
2022-12-22T20:59:53.933Z,0.32
2022-12-22T21:02:27.207Z,1.35
2022-12-22T21:04:54.267Z,1.38
2022-12-22T21:07:21.129Z,0.50
2022-12-22T21:09:48.001Z,0.88
2022-12-22T21:12:14.903Z,0.88
2022-12-22T21:14:41.707Z,1.08
2022-12-22T21:17:16.745Z,0.52
2022-12-22T21:19:43.667Z,0.50
2022-12-22T21:22:10.382Z,0.40
2022-12-22T21:24:37.158Z,0.20
2022-12-22T21:27:04.975Z,0.35
2022-12-22T21:29:32.058Z,0.60
2022-12-22T21:31:58.581Z,0.30
2022-12-22T21:34:25.134Z,0.30
2022-12-22T21:36:58.938Z,0.30
2022-12-22T21:39:39.394Z,0.32
2022-12-22T21:42:07.553Z,0.90
2022-12-22T21:44:35.567Z,0.50
2022-12-22T21:47:02.715Z,0.40
2022-12-22T21:49:32.590Z,0.40
2022-12-22T21:51:59.280Z,0.47
2022-12-22T21:54:26.344Z,0.30
2022-12-22T21:56:54.118Z,0.20
2022-12-22T21:59:21.729Z,0.32
2022-12-22T22:01:48.771Z,0.40
2022-12-22T22:04:15.712Z,0.30
2022-12-22T22:06:42.608Z,0.20
2022-12-22T22:09:09.851Z,0.20
2022-12-22T22:11:59.472Z,0.40
2022-12-22T22:14:27.212Z,0.20
2022-12-22T22:16:54.685Z,0.30
2022-12-22T22:19:21.428Z,0.50
2022-12-22T22:21:48.368Z,0.20
2022-12-22T22:24:15.124Z,0.43
2022-12-22T22:26:45.400Z,0.22
2022-12-22T22:29:12.196Z,0.20
2022-12-22T22:31:40.330Z,0.32
2022-12-22T22:34:07.095Z,0.20
2022-12-22T22:36:33.864Z,0.30
2022-12-22T22:39:00.589Z,0.30
2022-12-22T22:41:29.282Z,0.55
2022-12-22T22:43:56.116Z,1.92
2022-12-22T22:46:23.309Z,2.30
2022-12-22T22:48:50.152Z,1.80
2022-12-22T22:51:16.964Z,1.00
2022-12-22T22:53:43.694Z,0.43
2022-12-22T22:56:10.355Z,0.63
2022-12-22T22:58:37.058Z,1.13
2022-12-22T23:01:06.094Z,1.40
2022-12-22T23:03:33.044Z,1.77
2022-12-22T23:06:09.380Z,1.67
2022-12-22T23:08:36.603Z,1.90
2022-12-22T23:11:04.931Z,2.03
2022-12-22T23:13:31.710Z,1.50
2022-12-22T23:16:03.667Z,1.90
2022-12-22T23:18:33.796Z,1.70
2022-12-22T23:21:03.295Z,1.50
2022-12-22T23:23:31.497Z,1.40
2022-12-22T23:25:58.262Z,1.10
2022-12-22T23:28:25.395Z,0.70
2022-12-22T23:30:53.020Z,0.40
2022-12-22T23:33:21.004Z,0.40
2022-12-22T23:35:49.311Z,0.20
2022-12-22T23:38:17.817Z,0.20
2022-12-22T23:40:53.391Z,0.13
2022-12-22T23:43:21.526Z,0.10
2022-12-22T23:45:48.375Z,0.10
2022-12-22T23:48:15.234Z,0.13
2022-12-22T23:50:42.233Z,0.20
2022-12-22T23:53:08.873Z,0.10
2022-12-22T23:55:35.610Z,0.20
2022-12-22T23:58:02.487Z,0.20
